createdAt,value
2022-10-18T00:00:10.541Z,0.00
2022-10-18T00:01:06.199Z,0.00
2022-10-18T00:02:08.503Z,0.00
2022-10-18T00:03:09.629Z,0.00
2022-10-18T00:04:06.674Z,0.00
2022-10-18T00:05:07.842Z,0.04
2022-10-18T00:06:09.088Z,0.00
2022-10-18T00:07:08.102Z,0.00
2022-10-18T00:08:06.162Z,0.00
2022-10-18T00:09:10.450Z,0.00
2022-10-18T00:10:06.430Z,0.00
2022-10-18T00:12:08.908Z,0.00
2022-10-18T00:13:06.943Z,0.00
2022-10-18T00:14:09.165Z,0.00
2022-10-18T00:15:09.331Z,0.00
2022-10-18T00:16:06.346Z,0.00
2022-10-18T00:17:09.652Z,0.00
2022-10-18T00:18:06.633Z,0.00
2022-10-18T00:19:08.851Z,0.00
2022-10-18T00:20:10.033Z,0.00
2022-10-18T00:21:06.006Z,0.00
2022-10-18T00:22:10.361Z,0.00
2022-10-18T00:24:09.573Z,0.00
2022-10-18T00:25:08.682Z,0.00
2022-10-18T00:26:07.776Z,0.00
2022-10-18T00:27:08.960Z,0.00
2022-10-18T00:28:09.177Z,0.00
2022-10-18T00:29:08.195Z,0.00
2022-10-18T00:30:06.245Z,0.00
2022-10-18T00:31:08.472Z,0.00
2022-10-18T00:32:06.553Z,0.00
2022-10-18T00:33:08.804Z,0.00
2022-10-18T00:34:08.001Z,0.00
2022-10-18T00:35:07.013Z,0.00
2022-10-18T00:36:07.153Z,0.00
2022-10-18T00:37:07.338Z,0.00
2022-10-18T00:38:07.457Z,0.00
2022-10-18T00:39:06.561Z,0.00
2022-10-18T00:40:07.015Z,0.00
2022-10-18T00:41:05.816Z,0.00
2022-10-18T00:42:05.953Z,0.00
2022-10-18T00:43:07.147Z,0.00
2022-10-18T00:44:06.266Z,0.00
2022-10-18T00:45:06.441Z,0.00
2022-10-18T00:46:06.577Z,0.00
2022-10-18T00:47:08.706Z,0.00
2022-10-18T00:48:06.867Z,0.00
2022-10-18T00:49:05.961Z,0.00
2022-10-18T00:50:07.152Z,0.00
2022-10-18T00:52:06.391Z,0.00
2022-10-18T00:53:07.569Z,0.00
2022-10-18T00:54:05.626Z,0.00
2022-10-18T00:55:05.768Z,0.00
2022-10-18T00:56:06.942Z,0.00
2022-10-18T00:57:07.131Z,0.00
2022-10-18T00:58:06.180Z,0.00
2022-10-18T00:59:07.367Z,0.00
2022-10-18T01:00:07.506Z,0.00
2022-10-18T01:01:05.583Z,0.00
2022-10-18T01:03:05.902Z,0.00
2022-10-18T01:04:06.046Z,0.00
2022-10-18T01:05:07.245Z,0.00
2022-10-18T01:06:07.380Z,0.00
2022-10-18T01:07:06.509Z,0.00
2022-10-18T01:08:13.076Z,0.00
2022-10-18T01:09:05.761Z,0.00
2022-10-18T01:10:06.941Z,0.00
2022-10-18T01:11:06.050Z,0.00
2022-10-18T01:12:06.620Z,0.00
2022-10-18T01:13:05.754Z,0.00
2022-10-18T01:14:06.999Z,0.00
2022-10-18T01:15:06.075Z,0.00
2022-10-18T01:16:05.185Z,0.00
2022-10-18T01:17:07.435Z,0.00
2022-10-18T01:18:07.538Z,0.00
2022-10-18T01:19:05.595Z,0.00
2022-10-18T01:20:06.755Z,0.00
2022-10-18T01:21:05.883Z,0.00
2022-10-18T01:22:06.033Z,0.00
2022-10-18T01:23:05.145Z,0.00
2022-10-18T01:24:05.332Z,0.00
2022-10-18T01:26:07.184Z,0.00
2022-10-18T01:27:06.707Z,0.00
2022-10-18T01:28:06.844Z,0.00
2022-10-18T01:29:07.036Z,0.00
2022-10-18T01:30:07.113Z,0.00
2022-10-18T01:31:07.263Z,0.00
2022-10-18T01:32:07.394Z,0.00
2022-10-18T01:33:06.492Z,0.00
2022-10-18T01:35:05.742Z,0.00
2022-10-18T01:36:06.927Z,0.00
2022-10-18T01:37:07.635Z,0.00
2022-10-18T01:38:12.368Z,0.00
2022-10-18T01:39:07.336Z,0.00
2022-10-18T01:40:05.407Z,0.00
2022-10-18T01:41:05.544Z,0.00
2022-10-18T01:42:06.265Z,0.00
2022-10-18T01:44:07.245Z,0.00
2022-10-18T01:45:06.341Z,0.00
2022-10-18T01:46:05.459Z,0.00
2022-10-18T01:47:06.827Z,0.00
2022-10-18T01:48:06.752Z,0.00
2022-10-18T01:49:04.817Z,0.00
2022-10-18T01:50:07.017Z,0.00
2022-10-18T01:51:06.496Z,0.00
2022-10-18T01:52:05.636Z,0.00
2022-10-18T01:53:06.407Z,0.00
2022-10-18T01:54:06.843Z,0.00
2022-10-18T01:55:06.977Z,0.00
2022-10-18T01:56:07.114Z,0.00
2022-10-18T01:57:06.204Z,0.00
2022-10-18T01:58:06.347Z,0.00
2022-10-18T01:59:07.868Z,0.00
2022-10-18T02:00:06.614Z,0.00
2022-10-18T02:01:05.763Z,0.00
2022-10-18T02:02:05.849Z,0.00
2022-10-18T02:03:06.008Z,0.00
2022-10-18T02:04:05.117Z,0.00
2022-10-18T02:05:06.315Z,0.00
2022-10-18T02:06:06.428Z,0.00
2022-10-18T02:07:05.548Z,0.00
2022-10-18T02:08:22.064Z,0.00
2022-10-18T02:09:05.807Z,0.00
2022-10-18T02:10:06.016Z,0.00
2022-10-18T02:11:07.620Z,0.00
2022-10-18T02:13:06.393Z,0.00
2022-10-18T02:14:04.447Z,0.00
2022-10-18T02:15:06.695Z,0.00
2022-10-18T02:16:06.827Z,0.00
2022-10-18T02:17:06.299Z,0.00
2022-10-18T02:18:05.041Z,0.00
2022-10-18T02:19:06.220Z,0.00
2022-10-18T02:20:05.350Z,0.00
2022-10-18T02:21:04.431Z,0.00
2022-10-18T02:22:04.567Z,0.00
2022-10-18T02:23:06.784Z,0.00
2022-10-18T02:24:04.840Z,0.00
2022-10-18T02:25:05.007Z,0.00
2022-10-18T02:26:05.173Z,0.00
2022-10-18T02:27:06.344Z,0.00
2022-10-18T02:28:04.416Z,0.00
2022-10-18T02:29:06.330Z,0.00
2022-10-18T02:30:04.689Z,0.00
2022-10-18T02:31:04.868Z,0.00
2022-10-18T02:32:05.005Z,0.00
2022-10-18T02:33:05.175Z,0.00
2022-10-18T02:34:04.294Z,0.00
2022-10-18T02:35:06.383Z,0.00
2022-10-18T02:36:05.681Z,0.00
2022-10-18T02:37:04.821Z,0.00
2022-10-18T02:38:04.999Z,0.00
2022-10-18T02:39:05.131Z,0.00
2022-10-18T02:40:04.271Z,0.00
2022-10-18T02:41:06.525Z,0.00
2022-10-18T02:42:04.581Z,0.00
2022-10-18T02:43:04.753Z,0.00
2022-10-18T02:44:04.924Z,0.00
2022-10-18T02:45:06.135Z,0.00
2022-10-18T02:46:05.244Z,0.00
2022-10-18T02:47:06.356Z,0.00
2022-10-18T02:48:04.522Z,0.00
2022-10-18T02:49:10.902Z,0.00
2022-10-18T02:50:04.844Z,0.00
2022-10-18T02:51:05.007Z,0.00
2022-10-18T02:52:06.155Z,0.00
2022-10-18T02:53:06.317Z,0.00
2022-10-18T02:54:05.432Z,0.00
2022-10-18T02:55:04.556Z,0.00
2022-10-18T02:56:04.715Z,0.00
2022-10-18T02:57:05.887Z,0.00
2022-10-18T02:58:05.032Z,0.00
2022-10-18T02:59:06.745Z,0.00
2022-10-18T03:00:04.267Z,0.00
2022-10-18T03:01:04.426Z,0.00
2022-10-18T03:02:05.607Z,0.00
2022-10-18T03:03:04.729Z,0.00
2022-10-18T03:04:04.892Z,0.00
2022-10-18T03:05:06.504Z,0.00
2022-10-18T03:06:04.158Z,0.00
2022-10-18T03:07:04.324Z,0.00
2022-10-18T03:08:04.468Z,0.00
2022-10-18T03:09:34.671Z,0.00
2022-10-18T03:10:03.707Z,0.00
2022-10-18T03:11:03.910Z,0.00
2022-10-18T03:12:11.270Z,0.00
2022-10-18T03:14:04.250Z,0.00
2022-10-18T03:15:04.390Z,0.00
2022-10-18T03:16:07.181Z,0.00
2022-10-18T03:17:03.617Z,0.00
2022-10-18T03:18:05.808Z,0.00
2022-10-18T03:19:05.949Z,0.00
2022-10-18T03:20:06.102Z,0.00
2022-10-18T03:21:05.197Z,0.00
2022-10-18T03:22:04.365Z,0.00
2022-10-18T03:23:04.493Z,0.00
2022-10-18T03:24:04.581Z,0.00
2022-10-18T03:25:04.751Z,0.00
2022-10-18T03:26:03.871Z,0.00
2022-10-18T03:27:03.990Z,0.00
2022-10-18T03:28:04.191Z,0.00
2022-10-18T03:29:04.379Z,0.00
2022-10-18T03:30:03.449Z,0.00
2022-10-18T03:31:04.636Z,0.00
2022-10-18T03:32:05.840Z,0.00
2022-10-18T03:33:06.289Z,0.00
2022-10-18T03:34:05.099Z,0.00
2022-10-18T03:35:05.243Z,0.00
2022-10-18T03:36:05.399Z,0.00
2022-10-18T03:37:05.628Z,0.00
2022-10-18T03:38:10.352Z,0.00
2022-10-18T03:39:04.215Z,0.00
2022-10-18T03:40:05.378Z,0.00
2022-10-18T03:41:05.522Z,0.00
2022-10-18T03:42:05.635Z,0.00
2022-10-18T03:43:05.782Z,0.00
2022-10-18T03:44:06.365Z,0.00
2022-10-18T03:46:04.142Z,0.00
2022-10-18T03:47:05.327Z,0.00
2022-10-18T03:48:04.426Z,0.00
2022-10-18T03:49:04.574Z,0.00
2022-10-18T03:50:06.315Z,0.00
2022-10-18T03:51:04.901Z,0.00
2022-10-18T03:52:03.984Z,0.00
2022-10-18T03:53:04.194Z,0.00
2022-10-18T03:54:04.295Z,0.00
2022-10-18T03:55:04.431Z,0.00
2022-10-18T03:56:09.964Z,0.00
2022-10-18T03:57:03.656Z,0.00
2022-10-18T03:58:04.835Z,0.00
2022-10-18T03:59:04.970Z,0.00
2022-10-18T04:00:03.036Z,0.00
2022-10-18T04:01:03.193Z,0.00
2022-10-18T04:02:03.468Z,0.00
2022-10-18T04:03:04.516Z,0.00
2022-10-18T04:04:03.617Z,0.00
2022-10-18T04:05:03.759Z,0.00
2022-10-18T04:06:04.944Z,0.00
2022-10-18T04:08:04.208Z,0.00
2022-10-18T04:09:07.860Z,0.00
2022-10-18T04:10:04.036Z,0.00
2022-10-18T04:11:03.212Z,0.00
2022-10-18T04:12:03.393Z,0.00
2022-10-18T04:13:06.468Z,0.00
2022-10-18T04:14:04.747Z,0.00
2022-10-18T04:15:04.033Z,0.00
2022-10-18T04:16:03.108Z,0.00
2022-10-18T04:17:03.228Z,0.00
2022-10-18T04:18:04.391Z,0.00
2022-10-18T04:19:03.588Z,0.00
2022-10-18T04:20:03.654Z,0.00
2022-10-18T04:21:03.807Z,0.00
2022-10-18T04:23:04.129Z,0.00
2022-10-18T04:24:03.231Z,0.00
2022-10-18T04:25:03.439Z,0.00
2022-10-18T04:26:04.500Z,0.00
2022-10-18T04:27:02.752Z,0.00
2022-10-18T04:28:02.829Z,0.00
2022-10-18T04:29:03.088Z,0.00
2022-10-18T04:30:04.205Z,0.00
2022-10-18T04:31:03.323Z,0.00
2022-10-18T04:32:03.472Z,0.00
2022-10-18T04:33:02.662Z,0.00
2022-10-18T04:34:02.768Z,0.00
2022-10-18T04:35:03.942Z,0.00
2022-10-18T04:36:02.941Z,0.00
2022-10-18T04:37:03.061Z,0.00
2022-10-18T04:38:04.155Z,0.00
2022-10-18T04:39:05.469Z,0.00
2022-10-18T04:40:04.501Z,0.00
2022-10-18T04:41:03.635Z,0.00
2022-10-18T04:42:02.680Z,0.00
2022-10-18T04:43:02.812Z,0.00
2022-10-18T04:44:02.949Z,0.00
2022-10-18T04:45:04.121Z,0.00
2022-10-18T04:46:04.251Z,0.00
2022-10-18T04:47:02.325Z,0.00
2022-10-18T04:48:09.730Z,0.00
2022-10-18T04:49:02.582Z,0.00
2022-10-18T04:50:02.715Z,0.00
2022-10-18T04:51:02.849Z,0.00
2022-10-18T04:52:03.015Z,0.00
2022-10-18T04:53:03.097Z,0.00
2022-10-18T04:54:03.249Z,0.00
2022-10-18T04:55:03.403Z,0.00
2022-10-18T04:56:04.593Z,0.00
2022-10-18T04:57:03.784Z,0.00
2022-10-18T04:58:02.823Z,0.00
2022-10-18T04:59:17.516Z,0.00
2022-10-18T05:00:04.269Z,0.00
2022-10-18T05:01:03.303Z,0.00
2022-10-18T05:04:04.810Z,0.00
2022-10-18T05:05:02.930Z,0.02
2022-10-18T05:06:03.689Z,0.36
2022-10-18T05:07:04.232Z,0.37
2022-10-18T05:08:04.357Z,0.37
2022-10-18T05:09:29.449Z,0.37
2022-10-18T05:10:04.675Z,0.38
2022-10-18T05:11:02.781Z,0.38
2022-10-18T05:12:02.885Z,0.37
2022-10-18T05:13:01.992Z,0.02
2022-10-18T05:14:04.227Z,0.37
2022-10-18T05:15:06.581Z,0.00
2022-10-18T05:16:02.444Z,0.00
2022-10-18T05:17:02.616Z,0.00
2022-10-18T05:18:02.739Z,0.00
2022-10-18T05:19:01.867Z,0.00
2022-10-18T05:20:03.124Z,0.02
2022-10-18T05:21:02.232Z,0.02
2022-10-18T05:22:02.308Z,0.00
2022-10-18T05:23:03.517Z,0.01
2022-10-18T05:24:03.664Z,0.01
2022-10-18T05:25:02.758Z,0.01
2022-10-18T05:26:02.937Z,0.01
2022-10-18T05:27:02.003Z,0.03
2022-10-18T05:28:10.651Z,0.02
2022-10-18T05:29:03.397Z,0.11
2022-10-18T05:30:05.720Z,0.03
2022-10-18T05:31:02.571Z,0.03
2022-10-18T05:32:02.738Z,0.04
2022-10-18T05:33:02.839Z,0.09
2022-10-18T05:34:01.962Z,0.14
2022-10-18T05:35:03.137Z,0.18
2022-10-18T05:36:02.222Z,0.17
2022-10-18T05:37:02.361Z,0.20
2022-10-18T05:38:02.515Z,0.12
2022-10-18T05:39:05.017Z,0.37
2022-10-18T05:40:02.744Z,0.23
2022-10-18T05:41:02.869Z,0.45
2022-10-18T05:42:02.984Z,0.32
2022-10-18T05:43:02.081Z,0.36
2022-10-18T05:44:02.232Z,0.52
2022-10-18T05:45:02.366Z,0.61
2022-10-18T05:46:02.461Z,0.56
2022-10-18T05:47:01.578Z,0.72
2022-10-18T05:48:01.698Z,0.98
2022-10-18T05:49:01.818Z,1.07
2022-10-18T05:50:02.069Z,1.06
2022-10-18T05:51:04.183Z,1.35
2022-10-18T05:52:02.309Z,1.42
2022-10-18T05:53:12.048Z,1.64
2022-10-18T05:54:03.513Z,1.82
2022-10-18T05:55:02.733Z,1.77
2022-10-18T05:56:01.751Z,1.86
2022-10-18T05:57:02.939Z,2.18
2022-10-18T05:58:02.027Z,2.09
2022-10-18T05:59:02.163Z,2.39
2022-10-18T06:00:03.373Z,2.63
2022-10-18T06:01:03.492Z,2.86
2022-10-18T06:02:02.587Z,2.96
2022-10-18T06:03:01.683Z,2.93
2022-10-18T06:04:02.868Z,3.36
2022-10-18T06:05:03.028Z,3.81
2022-10-18T06:06:02.214Z,4.39
2022-10-18T06:07:01.252Z,4.87
2022-10-18T06:08:04.216Z,5.43
2022-10-18T06:09:26.418Z,6.16
2022-10-18T06:10:01.744Z,6.54
2022-10-18T06:11:01.815Z,7.08
2022-10-18T06:12:02.054Z,7.65
2022-10-18T06:13:03.146Z,8.35
2022-10-18T06:14:03.386Z,9.06
2022-10-18T06:15:02.465Z,10.02
2022-10-18T06:16:02.584Z,10.98
2022-10-18T06:17:01.718Z,11.95
2022-10-18T06:18:01.828Z,13.06
2022-10-18T06:19:01.933Z,14.20
2022-10-18T06:20:02.077Z,15.81
2022-10-18T06:21:02.199Z,17.22
2022-10-18T06:22:02.348Z,18.81
2022-10-18T06:23:02.603Z,20.03
2022-10-18T06:24:02.633Z,21.23
2022-10-18T06:25:02.776Z,22.01
2022-10-18T06:26:01.949Z,22.82
2022-10-18T06:27:01.056Z,23.50
2022-10-18T06:28:01.212Z,24.28
2022-10-18T06:29:01.456Z,24.83
2022-10-18T06:30:01.440Z,25.00
2022-10-18T06:31:01.591Z,25.71
2022-10-18T06:32:01.717Z,26.36
2022-10-18T06:33:01.938Z,25.95
2022-10-18T06:34:03.082Z,27.66
2022-10-18T06:35:01.121Z,29.49
2022-10-18T06:36:01.278Z,31.28
2022-10-18T06:37:01.421Z,34.96
2022-10-18T06:38:01.661Z,38.59
2022-10-18T06:39:01.796Z,42.34
2022-10-18T06:40:02.057Z,44.64
2022-10-18T06:41:02.091Z,48.26
2022-10-18T06:42:02.235Z,52.00
2022-10-18T06:43:19.633Z,54.55
2022-10-18T06:44:02.490Z,55.49
2022-10-18T06:45:02.744Z,54.59
2022-10-18T06:46:00.852Z,54.49
2022-10-18T06:47:01.865Z,54.89
2022-10-18T06:48:08.454Z,55.95
2022-10-18T06:49:01.225Z,56.87
2022-10-18T06:50:02.783Z,58.77
2022-10-18T06:51:02.591Z,60.02
2022-10-18T06:52:01.510Z,62.60
2022-10-18T06:53:02.861Z,65.94
2022-10-18T06:54:16.791Z,66.83
2022-10-18T06:55:08.402Z,70.85
2022-10-18T06:56:01.262Z,71.71
2022-10-18T06:57:01.435Z,72.89
2022-10-18T06:58:01.557Z,74.21
2022-10-18T06:59:02.740Z,73.95
2022-10-18T07:00:01.853Z,72.60
2022-10-18T07:01:00.951Z,69.70
2022-10-18T07:02:02.261Z,68.23
2022-10-18T07:03:01.263Z,68.56
2022-10-18T07:04:02.451Z,70.74
2022-10-18T07:05:00.534Z,74.93
2022-10-18T07:06:00.693Z,80.70
2022-10-18T07:07:00.825Z,86.46
2022-10-18T07:08:08.305Z,92.33
2022-10-18T07:09:01.106Z,98.69
2022-10-18T07:10:01.249Z,107.19
2022-10-18T07:11:01.387Z,118.33
2022-10-18T07:12:28.474Z,129.22
2022-10-18T07:13:27.363Z,133.18
2022-10-18T07:14:03.271Z,137.11
2022-10-18T07:15:03.427Z,142.22
2022-10-18T07:16:01.218Z,143.30
2022-10-18T07:17:01.201Z,144.61
2022-10-18T07:18:00.819Z,143.04
2022-10-18T07:19:01.528Z,138.94
2022-10-18T07:20:02.734Z,135.75
2022-10-18T07:21:01.874Z,134.92
2022-10-18T07:22:00.947Z,137.27
2022-10-18T07:23:01.056Z,141.14
2022-10-18T07:24:01.219Z,149.51
2022-10-18T07:25:00.311Z,156.39
2022-10-18T07:26:00.665Z,159.41
2022-10-18T07:27:01.803Z,163.52
2022-10-18T07:28:00.753Z,167.14
2022-10-18T07:29:00.936Z,169.86
2022-10-18T07:30:01.172Z,173.22
2022-10-18T07:31:05.240Z,175.91
2022-10-18T07:32:02.378Z,176.49
2022-10-18T07:33:00.458Z,172.74
2022-10-18T07:34:01.659Z,167.73
2022-10-18T07:35:00.924Z,169.75
2022-10-18T07:36:01.642Z,175.70
2022-10-18T07:37:01.126Z,181.88
2022-10-18T07:38:00.242Z,186.88
2022-10-18T07:39:00.236Z,190.75
2022-10-18T07:40:00.424Z,192.35
2022-10-18T07:41:01.605Z,192.68
2022-10-18T07:42:01.792Z,191.16
2022-10-18T07:43:04.610Z,189.18
2022-10-18T07:44:02.012Z,188.13
2022-10-18T07:45:01.127Z,187.69
2022-10-18T07:46:00.399Z,187.92
2022-10-18T07:47:00.396Z,188.79
2022-10-18T07:48:00.697Z,190.19
2022-10-18T07:49:01.743Z,192.70
2022-10-18T07:50:00.830Z,196.59
2022-10-18T07:51:00.025Z,200.86
2022-10-18T07:52:00.040Z,204.72
2022-10-18T07:53:33.442Z,209.52
2022-10-18T07:54:00.341Z,209.41
2022-10-18T07:55:00.493Z,209.30
2022-10-18T07:56:04.520Z,208.95
2022-10-18T07:57:01.798Z,208.71
2022-10-18T07:58:00.141Z,209.73
2022-10-18T07:59:00.082Z,210.50
2022-10-18T08:00:00.203Z,210.70
2022-10-18T08:01:00.389Z,210.29
2022-10-18T08:02:00.519Z,211.34
2022-10-18T08:03:00.618Z,212.60
2022-10-18T08:04:06.061Z,212.87
2022-10-18T08:05:00.914Z,213.28
2022-10-18T08:06:00.056Z,214.70
2022-10-18T08:07:00.317Z,215.32
2022-10-18T08:08:03.058Z,215.72
2022-10-18T08:09:01.502Z,215.90
2022-10-18T08:10:39.982Z,215.95
2022-10-18T08:10:59.681Z,216.21
2022-10-18T08:11:59.826Z,216.75
2022-10-18T08:13:01.014Z,220.25
2022-10-18T08:14:00.110Z,221.77
2022-10-18T08:15:00.411Z,224.75
2022-10-18T08:16:01.346Z,235.01
2022-10-18T08:16:59.523Z,226.59
2022-10-18T08:18:03.653Z,229.94
2022-10-18T08:19:02.932Z,230.94
2022-10-18T08:20:11.850Z,230.52
2022-10-18T08:21:02.182Z,235.26
2022-10-18T08:22:00.256Z,242.59
2022-10-18T08:23:00.904Z,250.82
2022-10-18T08:24:00.520Z,259.96
2022-10-18T08:24:59.645Z,266.87
2022-10-18T08:26:01.725Z,274.92
2022-10-18T08:27:00.958Z,280.66
2022-10-18T08:28:00.008Z,287.11
2022-10-18T08:29:29.151Z,297.16
2022-10-18T08:30:01.360Z,306.31
2022-10-18T08:31:25.333Z,321.53
2022-10-18T08:31:59.525Z,337.61
2022-10-18T08:32:59.717Z,323.99
2022-10-18T08:33:59.850Z,322.63
2022-10-18T08:35:00.762Z,317.84
2022-10-18T08:36:00.128Z,315.73
2022-10-18T08:37:01.369Z,336.13
2022-10-18T08:37:59.337Z,376.98
2022-10-18T08:39:02.645Z,345.90
2022-10-18T08:40:00.594Z,410.62
2022-10-18T08:40:59.690Z,432.36
2022-10-18T08:41:59.863Z,430.46
2022-10-18T08:42:59.990Z,427.75
2022-10-18T08:44:02.166Z,453.32
2022-10-18T08:45:08.275Z,416.74
2022-10-18T08:46:00.399Z,470.10
2022-10-18T08:47:00.559Z,397.20
2022-10-18T08:48:01.916Z,386.59
2022-10-18T08:49:01.806Z,400.40
2022-10-18T08:50:00.018Z,396.46
2022-10-18T08:51:00.130Z,404.51
2022-10-18T08:51:59.199Z,406.95
2022-10-18T08:53:01.454Z,394.22
2022-10-18T08:54:02.296Z,418.47
2022-10-18T08:54:59.593Z,454.87
2022-10-18T08:56:02.298Z,473.67
2022-10-18T08:57:00.907Z,503.56
2022-10-18T08:57:58.998Z,509.64
2022-10-18T08:59:00.191Z,531.78
2022-10-18T09:00:01.395Z,569.54
2022-10-18T09:01:01.735Z,572.49
2022-10-18T09:01:59.613Z,795.50
2022-10-18T09:03:00.839Z,730.12
2022-10-18T09:03:59.919Z,602.62
2022-10-18T09:04:59.029Z,625.22
2022-10-18T09:05:59.311Z,542.94
2022-10-18T09:07:00.453Z,520.53
2022-10-18T09:07:59.521Z,504.78
2022-10-18T09:09:01.682Z,501.69
2022-10-18T09:10:00.931Z,503.27
2022-10-18T09:12:02.069Z,520.46
2022-10-18T09:13:00.407Z,525.24
2022-10-18T09:14:00.495Z,548.07
2022-10-18T09:14:59.702Z,583.76
2022-10-18T09:15:58.736Z,551.24
2022-10-18T09:16:58.880Z,358.61
2022-10-18T09:18:00.084Z,298.40
2022-10-18T09:18:59.473Z,269.60
2022-10-18T09:20:13.903Z,234.85
2022-10-18T09:21:01.059Z,218.77
2022-10-18T09:21:58.656Z,208.86
2022-10-18T09:23:00.942Z,206.08
2022-10-18T09:24:00.062Z,188.60
2022-10-18T09:24:59.206Z,176.87
2022-10-18T09:25:59.433Z,172.74
2022-10-18T09:27:01.533Z,173.38
2022-10-18T09:27:58.700Z,175.97
2022-10-18T09:29:49.872Z,182.10
2022-10-18T09:29:59.047Z,182.56
2022-10-18T09:30:59.799Z,187.95
2022-10-18T09:31:59.356Z,196.49
2022-10-18T09:32:58.482Z,209.68
2022-10-18T09:33:59.709Z,213.41
2022-10-18T09:34:58.882Z,221.57
2022-10-18T09:35:58.962Z,219.80
2022-10-18T09:37:00.162Z,214.99
2022-10-18T09:37:59.296Z,215.10
2022-10-18T09:39:00.349Z,218.11
2022-10-18T09:39:58.606Z,223.56
2022-10-18T09:40:58.806Z,234.17
2022-10-18T09:41:59.998Z,248.26
2022-10-18T09:42:59.187Z,263.02
2022-10-18T09:43:59.303Z,273.89
2022-10-18T09:44:59.471Z,283.86
2022-10-18T09:45:58.596Z,293.21
2022-10-18T09:46:59.885Z,302.93
2022-10-18T09:47:59.004Z,314.52
2022-10-18T09:48:59.123Z,324.10
2022-10-18T09:50:00.427Z,318.04
2022-10-18T09:50:58.399Z,306.62
2022-10-18T09:51:58.530Z,302.55
2022-10-18T09:52:58.737Z,302.63
2022-10-18T09:53:58.879Z,301.44
2022-10-18T09:54:59.032Z,306.60
2022-10-18T09:55:59.251Z,306.40
2022-10-18T09:56:59.381Z,315.31
2022-10-18T09:57:59.620Z,324.03
2022-10-18T09:58:58.672Z,333.66
2022-10-18T09:59:58.844Z,341.33
2022-10-18T10:01:00.078Z,363.19
2022-10-18T10:01:58.146Z,345.87
2022-10-18T10:03:00.436Z,336.34
2022-10-18T10:04:00.577Z,329.68
2022-10-18T10:04:58.702Z,324.56
2022-10-18T10:05:58.798Z,316.73
2022-10-18T10:06:58.978Z,305.08
2022-10-18T10:07:59.137Z,291.10
2022-10-18T10:09:00.399Z,288.80
2022-10-18T10:10:00.477Z,291.38
2022-10-18T10:10:59.583Z,297.47
2022-10-18T10:11:58.716Z,300.71
2022-10-18T10:12:58.888Z,297.07
2022-10-18T10:13:59.052Z,282.50
2022-10-18T10:14:59.253Z,270.28
2022-10-18T10:15:58.337Z,249.43
2022-10-18T10:16:59.539Z,237.70
2022-10-18T10:18:00.674Z,229.46
2022-10-18T10:18:59.864Z,225.81
2022-10-18T10:20:01.072Z,228.60
2022-10-18T10:20:59.129Z,230.32
2022-10-18T10:21:58.250Z,240.72
2022-10-18T10:22:59.426Z,248.94
2022-10-18T10:24:04.823Z,253.03
2022-10-18T10:24:58.723Z,260.27
2022-10-18T10:26:05.149Z,265.87
2022-10-18T10:26:59.160Z,267.27
2022-10-18T10:27:58.161Z,267.02
2022-10-18T10:29:01.465Z,260.64
2022-10-18T10:30:01.510Z,250.43
2022-10-18T10:31:05.923Z,240.78
2022-10-18T10:31:59.786Z,233.27
2022-10-18T10:33:05.124Z,223.72
2022-10-18T10:33:58.992Z,212.00
2022-10-18T10:34:59.135Z,200.89
2022-10-18T10:35:58.202Z,196.46
2022-10-18T10:36:59.385Z,189.85
2022-10-18T10:37:58.451Z,187.34
2022-10-18T10:38:59.569Z,181.64
2022-10-18T10:40:17.364Z,168.46
2022-10-18T10:40:58.760Z,157.27
2022-10-18T10:41:57.891Z,161.49
2022-10-18T10:43:08.796Z,166.53
2022-10-18T10:43:59.116Z,171.21
2022-10-18T10:44:58.222Z,172.18
2022-10-18T10:45:58.325Z,176.41
2022-10-18T10:46:58.454Z,171.16
2022-10-18T10:47:58.613Z,164.90
2022-10-18T10:49:21.745Z,163.54
2022-10-18T10:50:00.785Z,174.74
2022-10-18T10:50:57.846Z,177.35
2022-10-18T10:52:08.585Z,188.87
2022-10-18T10:52:59.064Z,203.25
2022-10-18T10:53:59.206Z,227.54
2022-10-18T10:55:17.015Z,251.91
2022-10-18T10:56:04.597Z,272.70
2022-10-18T10:56:57.441Z,296.66
2022-10-18T10:57:57.565Z,311.40
2022-10-18T10:58:58.198Z,313.06
2022-10-18T10:59:57.818Z,304.90
2022-10-18T11:00:57.911Z,286.78
2022-10-18T11:01:58.023Z,269.62
2022-10-18T11:03:05.263Z,251.11
2022-10-18T11:03:59.313Z,236.58
2022-10-18T11:04:59.427Z,223.82
2022-10-18T11:06:04.785Z,216.13
2022-10-18T11:06:58.633Z,212.35
2022-10-18T11:07:57.778Z,209.11
2022-10-18T11:08:57.849Z,207.10
2022-10-18T11:09:58.002Z,213.51
2022-10-18T11:10:58.098Z,216.10
2022-10-18T11:11:58.233Z,210.16
2022-10-18T11:12:58.360Z,200.23
2022-10-18T11:14:13.572Z,192.46
2022-10-18T11:14:59.640Z,195.63
2022-10-18T11:15:57.687Z,185.44
2022-10-18T11:16:58.831Z,173.37
2022-10-18T11:17:57.956Z,158.89
2022-10-18T11:18:59.087Z,141.22
2022-10-18T11:19:59.230Z,131.95
2022-10-18T11:20:59.549Z,119.66
2022-10-18T11:21:58.440Z,113.10
2022-10-18T11:22:57.564Z,109.94
2022-10-18T11:23:58.675Z,103.74
2022-10-18T11:24:57.751Z,96.75
2022-10-18T11:25:58.902Z,93.05
2022-10-18T11:26:59.066Z,96.39
2022-10-18T11:27:58.055Z,103.83
2022-10-18T11:28:58.178Z,113.66
2022-10-18T11:29:58.283Z,122.88
2022-10-18T11:30:57.365Z,125.23
2022-10-18T11:31:57.464Z,124.17
2022-10-18T11:33:03.869Z,116.00
2022-10-18T11:34:08.779Z,106.04
2022-10-18T11:34:58.835Z,101.98
2022-10-18T11:36:04.211Z,99.94
2022-10-18T11:37:15.957Z,109.52
2022-10-18T11:37:59.218Z,144.44
2022-10-18T11:38:57.346Z,182.17
2022-10-18T11:39:57.412Z,231.76
2022-10-18T11:40:57.517Z,263.98
2022-10-18T11:41:57.643Z,257.15
2022-10-18T11:42:57.735Z,225.08
2022-10-18T11:44:02.634Z,204.96
2022-10-18T11:44:57.991Z,212.50
2022-10-18T11:46:04.329Z,222.31
2022-10-18T11:46:57.171Z,224.71
2022-10-18T11:47:57.275Z,222.65
2022-10-18T11:48:57.406Z,210.40
2022-10-18T11:49:57.531Z,212.59
2022-10-18T11:50:57.594Z,232.42
2022-10-18T11:52:07.851Z,256.75
2022-10-18T11:52:57.837Z,271.60
2022-10-18T11:53:56.926Z,271.12
2022-10-18T11:54:58.096Z,271.47
2022-10-18T11:55:57.175Z,270.74
2022-10-18T11:56:57.271Z,259.60
2022-10-18T11:57:58.465Z,220.84
2022-10-18T11:58:58.571Z,177.31
2022-10-18T11:59:58.787Z,143.19
2022-10-18T12:00:56.703Z,121.00
2022-10-18T12:02:12.373Z,107.34
2022-10-18T12:02:56.973Z,113.74
2022-10-18T12:03:57.026Z,143.84
2022-10-18T12:05:22.543Z,190.26
2022-10-18T12:05:59.363Z,221.08
2022-10-18T12:06:57.387Z,247.60
2022-10-18T12:07:56.468Z,298.83
2022-10-18T12:08:57.630Z,328.06
2022-10-18T12:09:57.761Z,370.74
2022-10-18T12:11:05.036Z,477.42
2022-10-18T12:11:58.039Z,449.58
2022-10-18T12:13:23.135Z,397.48
2022-10-18T12:13:57.197Z,380.54
2022-10-18T12:14:58.403Z,343.58
2022-10-18T12:15:56.406Z,333.26
2022-10-18T12:17:20.192Z,377.34
2022-10-18T12:18:05.919Z,398.73
2022-10-18T12:18:57.737Z,415.51
2022-10-18T12:19:56.788Z,490.96
2022-10-18T12:21:11.410Z,450.55
2022-10-18T12:21:58.344Z,312.26
2022-10-18T12:22:57.148Z,283.26
2022-10-18T12:23:57.253Z,272.52
2022-10-18T12:24:56.357Z,248.05
2022-10-18T12:25:56.541Z,212.55
2022-10-18T12:26:56.649Z,184.76
2022-10-18T12:27:57.915Z,193.01
2022-10-18T12:28:58.037Z,205.22
2022-10-18T12:29:57.072Z,199.46
2022-10-18T12:30:56.169Z,214.51
2022-10-18T12:31:57.359Z,250.52
2022-10-18T12:33:08.633Z,284.80
2022-10-18T12:33:57.549Z,292.70
2022-10-18T12:34:56.700Z,278.01
2022-10-18T12:35:56.821Z,254.35
2022-10-18T12:36:56.981Z,257.59
2022-10-18T12:37:57.061Z,269.74
2022-10-18T12:38:56.199Z,300.49
2022-10-18T12:40:14.575Z,322.51
2022-10-18T12:41:11.932Z,358.53
2022-10-18T12:41:57.326Z,462.46
2022-10-18T12:42:56.694Z,618.19
2022-10-18T12:43:57.343Z,795.03
2022-10-18T12:44:57.979Z,932.37
2022-10-18T12:45:56.011Z,982.09
2022-10-18T12:46:56.117Z,1011.80
2022-10-18T12:48:03.492Z,1063.29
2022-10-18T12:49:11.781Z,1087.19
2022-10-18T12:49:56.483Z,1186.93
2022-10-18T12:50:58.679Z,1194.08
2022-10-18T12:51:56.754Z,1124.72
2022-10-18T12:52:56.823Z,1055.74
2022-10-18T12:53:57.966Z,1079.67
2022-10-18T12:54:56.094Z,1179.22
2022-10-18T12:55:56.119Z,1097.99
2022-10-18T12:56:56.229Z,992.87
2022-10-18T12:57:56.323Z,883.26
2022-10-18T12:58:56.416Z,1098.91
2022-10-18T12:59:57.614Z,839.56
2022-10-18T13:00:57.706Z,845.11
2022-10-18T13:01:55.779Z,844.19
2022-10-18T13:02:57.895Z,584.46
2022-10-18T13:03:58.016Z,727.37
2022-10-18T13:04:56.089Z,817.56
2022-10-18T13:05:56.696Z,873.37
2022-10-18T13:06:56.287Z,857.88